sensor_id;sensor_type;location;lat;lon;timestamp;pressure;altitude;pressure_sealevel;temperature;humidity
8705;BME280;4389;41.932;25.904;2023-03-26T00:00:40;99716.84;;;14.23;100.00
8705;BME280;4389;41.932;25.904;2023-03-26T00:03:08;99726.50;;;14.24;100.00
8705;BME280;4389;41.932;25.904;2023-03-26T00:05:36;99717.22;;;14.20;100.00
8705;BME280;4389;41.932;25.904;2023-03-26T00:08:03;99710.09;;;14.12;100.00
8705;BME280;4389;41.932;25.904;2023-03-26T00:10:33;99711.03;;;13.97;100.00
8705;BME280;4389;41.932;25.904;2023-03-26T00:13:00;99712.88;;;13.96;100.00
8705;BME280;4389;41.932;25.904;2023-03-26T00:15:27;99714.25;;;13.84;100.00
8705;BME280;4389;41.932;25.904;2023-03-26T00:17:55;99726.75;;;13.84;100.00
8705;BME280;4389;41.932;25.904;2023-03-26T00:20:23;99740.09;;;13.76;100.00
8705;BME280;4389;41.932;25.904;2023-03-26T00:22:50;99743.16;;;13.57;100.00
8705;BME280;4389;41.932;25.904;2023-03-26T00:25:18;99762.13;;;13.46;100.00
8705;BME280;4389;41.932;25.904;2023-03-26T00:27:46;99755.91;;;13.23;100.00
8705;BME280;4389;41.932;25.904;2023-03-26T00:30:14;99753.28;;;13.15;100.00
8705;BME280;4389;41.932;25.904;2023-03-26T00:32:41;99744.34;;;13.08;100.00
8705;BME280;4389;41.932;25.904;2023-03-26T00:35:10;99744.97;;;13.10;100.00
8705;BME280;4389;41.932;25.904;2023-03-26T00:37:37;99740.00;;;13.15;100.00
8705;BME280;4389;41.932;25.904;2023-03-26T00:40:08;99744.28;;;13.24;100.00
8705;BME280;4389;41.932;25.904;2023-03-26T00:42:36;99753.94;;;13.17;100.00
8705;BME280;4389;41.932;25.904;2023-03-26T00:45:04;99761.91;;;13.17;100.00
8705;BME280;4389;41.932;25.904;2023-03-26T00:47:32;99751.59;;;13.22;100.00
8705;BME280;4389;41.932;25.904;2023-03-26T00:49:59;99753.94;;;13.17;100.00
8705;BME280;4389;41.932;25.904;2023-03-26T00:52:27;99757.56;;;13.32;100.00
8705;BME280;4389;41.932;25.904;2023-03-26T00:54:54;99764.22;;;13.20;100.00
8705;BME280;4389;41.932;25.904;2023-03-26T00:57:22;99758.75;;;13.14;100.00
8705;BME280;4389;41.932;25.904;2023-03-26T00:59:54;99746.47;;;13.13;100.00
8705;BME280;4389;41.932;25.904;2023-03-26T01:02:21;99742.66;;;13.15;100.00
8705;BME280;4389;41.932;25.904;2023-03-26T01:04:55;99730.03;;;13.09;100.00
8705;BME280;4389;41.932;25.904;2023-03-26T01:07:24;99731.06;;;13.08;100.00
8705;BME280;4389;41.932;25.904;2023-03-26T01:09:57;99725.75;;;13.08;100.00
8705;BME280;4389;41.932;25.904;2023-03-26T01:12:27;99728.38;;;13.16;100.00
8705;BME280;4389;41.932;25.904;2023-03-26T01:14:58;99731.38;;;13.13;100.00
8705;BME280;4389;41.932;25.904;2023-03-26T01:17:27;99735.53;;;13.16;100.00
8705;BME280;4389;41.932;25.904;2023-03-26T01:20:08;99740.34;;;13.12;100.00
8705;BME280;4389;41.932;25.904;2023-03-26T01:22:43;99729.72;;;13.12;100.00
8705;BME280;4389;41.932;25.904;2023-03-26T01:25:13;99726.09;;;13.05;100.00
8705;BME280;4389;41.932;25.904;2023-03-26T01:27:43;99735.34;;;13.09;100.00
8705;BME280;4389;41.932;25.904;2023-03-26T01:30:19;99743.34;;;12.85;100.00
8705;BME280;4389;41.932;25.904;2023-03-26T01:32:57;99740.75;;;12.61;100.00
8705;BME280;4389;41.932;25.904;2023-03-26T01:35:42;99737.75;;;12.56;100.00
8705;BME280;4389;41.932;25.904;2023-03-26T01:38:22;99741.72;;;12.52;100.00
8705;BME280;4389;41.932;25.904;2023-03-26T01:40:55;99744.38;;;12.28;100.00
8705;BME280;4389;41.932;25.904;2023-03-26T01:43:28;99737.75;;;12.40;100.00
8705;BME280;4389;41.932;25.904;2023-03-26T01:45:59;99735.09;;;12.40;100.00
8705;BME280;4389;41.932;25.904;2023-03-26T01:48:29;99744.06;;;12.55;100.00
8705;BME280;4389;41.932;25.904;2023-03-26T01:50:57;99747.88;;;12.53;100.00
8705;BME280;4389;41.932;25.904;2023-03-26T01:53:24;99747.84;;;12.21;100.00
8705;BME280;4389;41.932;25.904;2023-03-26T01:56:00;99753.97;;;12.05;100.00
8705;BME280;4389;41.932;25.904;2023-03-26T01:58:34;99755.25;;;11.93;100.00
8705;BME280;4389;41.932;25.904;2023-03-26T02:01:11;99753.00;;;11.65;100.00
8705;BME280;4389;41.932;25.904;2023-03-26T02:03:46;99759.16;;;11.73;100.00
8705;BME280;4389;41.932;25.904;2023-03-26T02:06:19;99752.13;;;11.56;100.00
8705;BME280;4389;41.932;25.904;2023-03-26T02:08:51;99758.69;;;11.44;100.00
8705;BME280;4389;41.932;25.904;2023-03-26T02:11:21;99766.97;;;11.41;100.00
8705;BME280;4389;41.932;25.904;2023-03-26T02:13:49;99767.31;;;11.46;100.00
8705;BME280;4389;41.932;25.904;2023-03-26T02:16:16;99775.44;;;11.45;100.00
8705;BME280;4389;41.932;25.904;2023-03-26T02:18:46;99777.91;;;11.46;100.00
8705;BME280;4389;41.932;25.904;2023-03-26T02:21:17;99782.56;;;11.52;100.00
8705;BME280;4389;41.932;25.904;2023-03-26T02:23:47;99781.63;;;11.61;100.00
8705;BME280;4389;41.932;25.904;2023-03-26T02:26:16;99780.25;;;11.49;100.00
8705;BME280;4389;41.932;25.904;2023-03-26T02:28:45;99781.59;;;11.53;100.00
8705;BME280;4389;41.932;25.904;2023-03-26T02:31:12;99783.63;;;11.59;100.00
8705;BME280;4389;41.932;25.904;2023-03-26T02:33:42;99778.63;;;11.56;100.00
8705;BME280;4389;41.932;25.904;2023-03-26T02:36:12;99779.97;;;11.60;100.00
8705;BME280;4389;41.932;25.904;2023-03-26T02:38:39;99784.97;;;11.63;100.00
8705;BME280;4389;41.932;25.904;2023-03-26T02:41:06;99785.88;;;11.54;100.00
8705;BME280;4389;41.932;25.904;2023-03-26T02:43:33;99791.59;;;11.59;100.00
8705;BME280;4389;41.932;25.904;2023-03-26T02:46:01;99792.44;;;11.68;100.00
8705;BME280;4389;41.932;25.904;2023-03-26T02:48:27;99807.94;;;11.55;100.00
8705;BME280;4389;41.932;25.904;2023-03-26T02:50:55;99812.78;;;11.59;100.00
8705;BME280;4389;41.932;25.904;2023-03-26T02:53:23;99814.06;;;11.55;100.00
8705;BME280;4389;41.932;25.904;2023-03-26T02:55:54;99824.44;;;11.49;100.00
8705;BME280;4389;41.932;25.904;2023-03-26T02:58:21;99831.53;;;11.40;100.00
8705;BME280;4389;41.932;25.904;2023-03-26T03:00:49;99837.41;;;11.26;100.00
8705;BME280;4389;41.932;25.904;2023-03-26T03:03:20;99839.53;;;11.23;100.00
8705;BME280;4389;41.932;25.904;2023-03-26T03:05:48;99840.41;;;11.31;100.00
8705;BME280;4389;41.932;25.904;2023-03-26T03:08:16;99864.25;;;11.31;100.00
8705;BME280;4389;41.932;25.904;2023-03-26T03:10:54;99869.25;;;11.34;100.00
8705;BME280;4389;41.932;25.904;2023-03-26T03:13:22;99861.13;;;11.61;100.00
8705;BME280;4389;41.932;25.904;2023-03-26T03:15:48;99855.31;;;11.83;100.00
8705;BME280;4389;41.932;25.904;2023-03-26T03:18:15;99860.03;;;12.05;100.00
8705;BME280;4389;41.932;25.904;2023-03-26T03:20:44;99858.72;;;12.17;100.00
8705;BME280;4389;41.932;25.904;2023-03-26T03:23:11;99861.88;;;12.21;100.00
8705;BME280;4389;41.932;25.904;2023-03-26T03:25:38;99872.34;;;12.22;100.00
8705;BME280;4389;41.932;25.904;2023-03-26T03:28:06;99872.00;;;12.25;100.00
8705;BME280;4389;41.932;25.904;2023-03-26T03:30:33;99863.38;;;12.23;100.00
8705;BME280;4389;41.932;25.904;2023-03-26T03:33:00;99860.59;;;12.25;100.00
8705;BME280;4389;41.932;25.904;2023-03-26T03:35:28;99862.38;;;12.24;100.00
8705;BME280;4389;41.932;25.904;2023-03-26T03:37:57;99866.41;;;12.28;100.00
8705;BME280;4389;41.932;25.904;2023-03-26T03:40:24;99865.06;;;12.32;100.00
8705;BME280;4389;41.932;25.904;2023-03-26T03:42:51;99869.41;;;12.33;100.00
8705;BME280;4389;41.932;25.904;2023-03-26T03:45:19;99883.69;;;12.48;100.00
8705;BME280;4389;41.932;25.904;2023-03-26T03:47:46;99891.84;;;12.63;100.00
8705;BME280;4389;41.932;25.904;2023-03-26T03:50:13;99897.97;;;12.63;100.00
8705;BME280;4389;41.932;25.904;2023-03-26T03:52:40;99898.13;;;12.54;100.00
8705;BME280;4389;41.932;25.904;2023-03-26T03:55:09;99904.22;;;12.38;100.00
8705;BME280;4389;41.932;25.904;2023-03-26T03:57:36;99899.38;;;12.34;100.00
8705;BME280;4389;41.932;25.904;2023-03-26T04:00:03;99908.50;;;12.31;100.00
8705;BME280;4389;41.932;25.904;2023-03-26T04:02:33;99892.09;;;12.36;100.00
8705;BME280;4389;41.932;25.904;2023-03-26T04:05:01;99898.09;;;12.38;100.00
8705;BME280;4389;41.932;25.904;2023-03-26T04:07:29;99903.22;;;12.39;100.00
8705;BME280;4389;41.932;25.904;2023-03-26T04:09:56;99900.94;;;12.52;100.00
8705;BME280;4389;41.932;25.904;2023-03-26T04:12:26;99896.63;;;12.59;100.00
8705;BME280;4389;41.932;25.904;2023-03-26T04:14:53;99903.28;;;12.63;100.00
8705;BME280;4389;41.932;25.904;2023-03-26T04:17:20;99901.13;;;12.59;100.00
8705;BME280;4389;41.932;25.904;2023-03-26T04:19:48;99895.63;;;12.60;100.00
8705;BME280;4389;41.932;25.904;2023-03-26T04:22:15;99898.34;;;12.68;100.00
8705;BME280;4389;41.932;25.904;2023-03-26T04:24:42;99902.31;;;12.72;100.00
8705;BME280;4389;41.932;25.904;2023-03-26T04:27:12;99918.06;;;12.66;100.00
8705;BME280;4389;41.932;25.904;2023-03-26T04:29:45;99911.59;;;12.68;100.00
8705;BME280;4389;41.932;25.904;2023-03-26T04:32:17;99905.44;;;12.68;100.00
8705;BME280;4389;41.932;25.904;2023-03-26T04:34:46;99905.31;;;12.77;100.00
8705;BME280;4389;41.932;25.904;2023-03-26T04:37:19;99914.28;;;12.76;100.00
8705;BME280;4389;41.932;25.904;2023-03-26T04:39:49;99920.22;;;12.70;100.00
8705;BME280;4389;41.932;25.904;2023-03-26T04:42:15;99925.34;;;12.64;100.00
8705;BME280;4389;41.932;25.904;2023-03-26T04:44:45;99928.19;;;12.78;100.00
8705;BME280;4389;41.932;25.904;2023-03-26T04:47:15;99933.50;;;12.78;100.00
8705;BME280;4389;41.932;25.904;2023-03-26T04:49:42;99924.19;;;12.66;100.00
8705;BME280;4389;41.932;25.904;2023-03-26T04:52:10;99940.31;;;12.73;100.00
8705;BME280;4389;41.932;25.904;2023-03-26T04:54:37;99941.44;;;12.62;100.00
8705;BME280;4389;41.932;25.904;2023-03-26T04:57:07;99936.44;;;12.51;100.00
8705;BME280;4389;41.932;25.904;2023-03-26T04:59:38;99939.47;;;12.72;100.00
8705;BME280;4389;41.932;25.904;2023-03-26T05:02:07;99949.81;;;12.91;100.00
8705;BME280;4389;41.932;25.904;2023-03-26T05:04:34;99946.63;;;12.80;100.00
8705;BME280;4389;41.932;25.904;2023-03-26T05:07:03;99959.41;;;12.76;100.00
8705;BME280;4389;41.932;25.904;2023-03-26T05:09:30;99964.31;;;12.55;100.00
8705;BME280;4389;41.932;25.904;2023-03-26T05:11:57;99958.41;;;12.77;100.00
8705;BME280;4389;41.932;25.904;2023-03-26T05:14:24;99957.06;;;12.89;100.00
8705;BME280;4389;41.932;25.904;2023-03-26T05:16:50;99953.16;;;13.09;100.00
8705;BME280;4389;41.932;25.904;2023-03-26T05:19:20;99959.47;;;13.16;100.00
8705;BME280;4389;41.932;25.904;2023-03-26T05:21:47;99957.81;;;13.15;100.00
8705;BME280;4389;41.932;25.904;2023-03-26T05:24:14;99965.28;;;13.20;100.00
8705;BME280;4389;41.932;25.904;2023-03-26T05:26:42;99973.44;;;13.34;100.00
8705;BME280;4389;41.932;25.904;2023-03-26T05:29:09;99973.78;;;13.47;100.00
8705;BME280;4389;41.932;25.904;2023-03-26T05:31:35;99976.44;;;13.55;100.00
8705;BME280;4389;41.932;25.904;2023-03-26T05:34:02;99975.06;;;13.67;100.00
8705;BME280;4389;41.932;25.904;2023-03-26T05:36:30;99975.06;;;13.91;100.00
8705;BME280;4389;41.932;25.904;2023-03-26T05:38:58;99968.69;;;14.08;100.00
8705;BME280;4389;41.932;25.904;2023-03-26T05:41:24;99977.31;;;14.10;100.00
8705;BME280;4389;41.932;25.904;2023-03-26T05:43:51;99971.44;;;14.38;100.00
8705;BME280;4389;41.932;25.904;2023-03-26T05:46:18;99972.28;;;14.31;98.70
8705;BME280;4389;41.932;25.904;2023-03-26T05:48:47;99981.25;;;14.38;98.41
8705;BME280;4389;41.932;25.904;2023-03-26T05:51:16;99986.59;;;14.68;97.83
8705;BME280;4389;41.932;25.904;2023-03-26T05:53:44;99997.06;;;14.78;98.05
8705;BME280;4389;41.932;25.904;2023-03-26T05:56:11;99992.78;;;14.69;97.04
8705;BME280;4389;41.932;25.904;2023-03-26T05:58:38;99995.44;;;14.69;98.13
8705;BME280;4389;41.932;25.904;2023-03-26T06:01:07;99984.47;;;14.64;92.72
8705;BME280;4389;41.932;25.904;2023-03-26T06:03:36;99989.47;;;14.59;90.82
8705;BME280;4389;41.932;25.904;2023-03-26T06:06:06;99994.19;;;14.49;89.02
8705;BME280;4389;41.932;25.904;2023-03-26T06:08:33;99985.34;;;14.56;89.35
8705;BME280;4389;41.932;25.904;2023-03-26T06:11:03;99986.53;;;14.54;88.62
8705;BME280;4389;41.932;25.904;2023-03-26T06:13:32;99986.53;;;14.54;88.89
8705;BME280;4389;41.932;25.904;2023-03-26T06:15:59;99992.38;;;14.49;88.78
8705;BME280;4389;41.932;25.904;2023-03-26T06:18:26;99995.59;;;14.29;87.58
8705;BME280;4389;41.932;25.904;2023-03-26T06:20:53;99989.66;;;14.19;89.01
8705;BME280;4389;41.932;25.904;2023-03-26T06:23:20;99996.66;;;14.04;89.37
8705;BME280;4389;41.932;25.904;2023-03-26T06:25:48;99997.63;;;14.11;88.93
8705;BME280;4389;41.932;25.904;2023-03-26T06:28:16;99997.91;;;14.16;88.51
8705;BME280;4389;41.932;25.904;2023-03-26T06:30:44;100007.25;;;14.28;88.33
8705;BME280;4389;41.932;25.904;2023-03-26T06:33:10;100002.59;;;14.22;87.65
8705;BME280;4389;41.932;25.904;2023-03-26T06:35:37;100012.03;;;14.40;88.06
8705;BME280;4389;41.932;25.904;2023-03-26T06:38:04;100017.50;;;14.47;87.39
8705;BME280;4389;41.932;25.904;2023-03-26T06:40:32;100028.47;;;14.44;85.07
8705;BME280;4389;41.932;25.904;2023-03-26T06:42:59;100018.03;;;14.42;82.40
8705;BME280;4389;41.932;25.904;2023-03-26T06:45:28;100017.50;;;14.47;82.62
8705;BME280;4389;41.932;25.904;2023-03-26T06:47:55;100025.53;;;14.39;80.95
8705;BME280;4389;41.932;25.904;2023-03-26T06:50:22;100030.66;;;14.40;81.10
8705;BME280;4389;41.932;25.904;2023-03-26T06:52:48;100019.78;;;14.58;82.77
8705;BME280;4389;41.932;25.904;2023-03-26T06:55:16;100036.31;;;14.84;83.10
8705;BME280;4389;41.932;25.904;2023-03-26T06:57:47;100039.06;;;14.98;81.68
8705;BME280;4389;41.932;25.904;2023-03-26T07:00:15;100045.81;;;14.86;78.07
8705;BME280;4389;41.932;25.904;2023-03-26T07:02:43;100043.50;;;14.75;77.00
8705;BME280;4389;41.932;25.904;2023-03-26T07:05:10;100038.38;;;14.66;76.57
8705;BME280;4389;41.932;25.904;2023-03-26T07:07:37;100036.00;;;14.79;77.25
8705;BME280;4389;41.932;25.904;2023-03-26T07:10:05;100037.38;;;14.75;75.67
8705;BME280;4389;41.932;25.904;2023-03-26T07:12:32;100045.66;;;14.80;75.23
8705;BME280;4389;41.932;25.904;2023-03-26T07:14:59;100040.06;;;14.97;77.33
8705;BME280;4389;41.932;25.904;2023-03-26T07:17:27;100031.59;;;14.94;74.99
8705;BME280;4389;41.932;25.904;2023-03-26T07:19:55;100032.91;;;14.98;75.27
8705;BME280;4389;41.932;25.904;2023-03-26T07:22:23;100032.56;;;15.01;75.46
8705;BME280;4389;41.932;25.904;2023-03-26T07:24:51;100039.38;;;15.03;75.72
8705;BME280;4389;41.932;25.904;2023-03-26T07:27:31;100033.94;;;15.19;74.92
8705;BME280;4389;41.932;25.904;2023-03-26T07:30:04;100033.78;;;15.21;72.42
8705;BME280;4389;41.932;25.904;2023-03-26T07:32:40;100035.06;;;15.33;73.53
8705;BME280;4389;41.932;25.904;2023-03-26T07:35:18;100039.97;;;15.44;73.73
8705;BME280;4389;41.932;25.904;2023-03-26T07:37:52;100040.69;;;15.38;71.81
8705;BME280;4389;41.932;25.904;2023-03-26T07:40:45;100036.75;;;15.48;71.90
8705;BME280;4389;41.932;25.904;2023-03-26T07:43:24;100028.47;;;15.66;69.96
8705;BME280;4389;41.932;25.904;2023-03-26T07:45:55;100026.81;;;15.65;66.58
8705;BME280;4389;41.932;25.904;2023-03-26T07:48:23;100027.75;;;15.72;68.21
8705;BME280;4389;41.932;25.904;2023-03-26T07:50:54;100040.06;;;15.73;68.76
8705;BME280;4389;41.932;25.904;2023-03-26T07:53:21;100040.06;;;15.73;64.09
8705;BME280;4389;41.932;25.904;2023-03-26T07:55:52;100047.09;;;15.74;63.90
8705;BME280;4389;41.932;25.904;2023-03-26T07:58:53;100049.97;;;15.87;63.92
8705;BME280;4389;41.932;25.904;2023-03-26T08:01:26;100043.25;;;15.91;63.73
8705;BME280;4389;41.932;25.904;2023-03-26T08:04:37;100037.78;;;16.07;63.61
8705;BME280;4389;41.932;25.904;2023-03-26T08:07:13;100044.75;;;16.08;62.92
8705;BME280;4389;41.932;25.904;2023-03-26T08:09:53;100043.41;;;16.12;61.52
8705;BME280;4389;41.932;25.904;2023-03-26T08:12:27;100034.19;;;16.29;62.91
8705;BME280;4389;41.932;25.904;2023-03-26T08:15:02;100044.53;;;16.32;63.34
8705;BME280;4389;41.932;25.904;2023-03-26T08:17:38;100047.16;;;16.40;62.58
8705;BME280;4389;41.932;25.904;2023-03-26T08:20:17;100056.44;;;16.44;63.55
8705;BME280;4389;41.932;25.904;2023-03-26T08:22:55;100036.53;;;16.32;62.48
8705;BME280;4389;41.932;25.904;2023-03-26T08:25:26;100039.88;;;16.63;62.78
8705;BME280;4389;41.932;25.904;2023-03-26T08:28:08;100043.00;;;16.81;62.87
8705;BME280;4389;41.932;25.904;2023-03-26T08:30:40;100068.75;;;17.03;62.57
8705;BME280;4389;41.932;25.904;2023-03-26T08:33:11;100044.78;;;17.09;57.32
8705;BME280;4389;41.932;25.904;2023-03-26T08:35:38;100060.63;;;17.11;54.88
8705;BME280;4389;41.932;25.904;2023-03-26T08:38:08;100042.94;;;16.95;55.54
8705;BME280;4389;41.932;25.904;2023-03-26T08:44:06;100033.50;;;17.14;53.02
8705;BME280;4389;41.932;25.904;2023-03-26T08:49:56;100043.50;;;17.05;52.17
8705;BME280;4389;41.932;25.904;2023-03-26T08:55:43;100033.66;;;17.27;50.40
8705;BME280;4389;41.932;25.904;2023-03-26T08:58:56;100013.06;;;17.42;50.00
8705;BME280;4389;41.932;25.904;2023-03-26T09:04:51;100037.75;;;17.65;49.99
8705;BME280;4389;41.932;25.904;2023-03-26T09:07:52;100004.31;;;17.75;51.87
8705;BME280;4389;41.932;25.904;2023-03-26T09:10:34;100029.22;;;17.76;50.21
8705;BME280;4389;41.932;25.904;2023-03-26T09:16:31;100011.44;;;17.68;49.33
8705;BME280;4389;41.932;25.904;2023-03-26T09:22:37;100006.31;;;17.46;50.58
8705;BME280;4389;41.932;25.904;2023-03-26T09:25:29;99989.59;;;17.44;50.60
8705;BME280;4389;41.932;25.904;2023-03-26T09:28:41;99998.53;;;17.51;49.51
8705;BME280;4389;41.932;25.904;2023-03-26T09:31:44;100005.88;;;17.63;48.39
8705;BME280;4389;41.932;25.904;2023-03-26T09:34:27;99991.91;;;17.68;50.72
8705;BME280;4389;41.932;25.904;2023-03-26T09:36:55;100001.44;;;17.77;49.23
8705;BME280;4389;41.932;25.904;2023-03-26T09:39:35;100006.94;;;17.69;47.02
8705;BME280;4389;41.932;25.904;2023-03-26T09:42:09;100000.03;;;17.81;46.86
8705;BME280;4389;41.932;25.904;2023-03-26T09:51:08;99987.00;;;17.99;46.37
8705;BME280;4389;41.932;25.904;2023-03-26T09:53:48;99996.41;;;18.16;46.57
8705;BME280;4389;41.932;25.904;2023-03-26T09:56:24;99995.28;;;18.04;44.64
8705;BME280;4389;41.932;25.904;2023-03-26T10:01:56;99993.19;;;17.99;45.05
8705;BME280;4389;41.932;25.904;2023-03-26T10:04:55;100004.03;;;18.19;45.44
8705;BME280;4389;41.932;25.904;2023-03-26T10:08:01;99983.47;;;18.26;44.84
8705;BME280;4389;41.932;25.904;2023-03-26T10:10:36;99974.53;;;18.46;45.48
8705;BME280;4389;41.932;25.904;2023-03-26T10:13:16;99980.38;;;18.63;43.68
8705;BME280;4389;41.932;25.904;2023-03-26T10:15:57;99976.28;;;18.26;44.19
8705;BME280;4389;41.932;25.904;2023-03-26T10:18:32;99991.19;;;18.35;44.26
8705;BME280;4389;41.932;25.904;2023-03-26T10:21:06;99992.31;;;18.54;43.60
8705;BME280;4389;41.932;25.904;2023-03-26T10:23:51;99987.91;;;18.40;42.02
8705;BME280;4389;41.932;25.904;2023-03-26T10:26:42;99987.75;;;18.48;43.36
8705;BME280;4389;41.932;25.904;2023-03-26T10:29:28;99981.19;;;18.57;43.62
8705;BME280;4389;41.932;25.904;2023-03-26T10:32:05;99996.47;;;18.63;42.39
8705;BME280;4389;41.932;25.904;2023-03-26T10:34:56;99961.63;;;18.63;41.91
8705;BME280;4389;41.932;25.904;2023-03-26T10:37:36;99962.91;;;18.67;41.80
8705;BME280;4389;41.932;25.904;2023-03-26T10:40:18;99967.59;;;18.65;40.73
8705;BME280;4389;41.932;25.904;2023-03-26T10:43:18;99973.44;;;18.81;40.25
8705;BME280;4389;41.932;25.904;2023-03-26T10:46:17;99957.03;;;19.03;40.45
8705;BME280;4389;41.932;25.904;2023-03-26T10:49:05;99970.63;;;18.95;38.72
8705;BME280;4389;41.932;25.904;2023-03-26T10:51:53;99968.31;;;18.92;40.20
8705;BME280;4389;41.932;25.904;2023-03-26T10:54:34;99964.41;;;18.95;40.85
8705;BME280;4389;41.932;25.904;2023-03-26T10:57:11;99959.00;;;18.82;40.12
8705;BME280;4389;41.932;25.904;2023-03-26T10:59:41;99953.31;;;19.04;41.31
8705;BME280;4389;41.932;25.904;2023-03-26T11:02:23;99954.13;;;18.98;39.71
8705;BME280;4389;41.932;25.904;2023-03-26T11:04:56;99947.53;;;19.01;39.75
8705;BME280;4389;41.932;25.904;2023-03-26T11:07:33;99950.41;;;18.99;39.84
8705;BME280;4389;41.932;25.904;2023-03-26T11:10:08;99944.66;;;19.02;40.00
8705;BME280;4389;41.932;25.904;2023-03-26T11:12:43;99932.69;;;19.11;39.97
8705;BME280;4389;41.932;25.904;2023-03-26T11:15:21;99941.41;;;19.26;39.09
8705;BME280;4389;41.932;25.904;2023-03-26T11:18:00;99942.69;;;19.43;39.32
8705;BME280;4389;41.932;25.904;2023-03-26T11:20:36;99919.34;;;19.57;39.64
8705;BME280;4389;41.932;25.904;2023-03-26T11:23:17;99926.56;;;19.30;38.17
8705;BME280;4389;41.932;25.904;2023-03-26T11:26:04;99927.59;;;19.36;36.83
8705;BME280;4389;41.932;25.904;2023-03-26T11:28:47;99919.94;;;19.26;37.96
8705;BME280;4389;41.932;25.904;2023-03-26T11:31:22;99910.88;;;19.40;38.42
8705;BME280;4389;41.932;25.904;2023-03-26T11:33:55;99918.72;;;19.68;37.15
8705;BME280;4389;41.932;25.904;2023-03-26T11:36:27;99916.00;;;19.87;37.88
8705;BME280;4389;41.932;25.904;2023-03-26T11:38:58;99901.75;;;19.87;36.26
8705;BME280;4389;41.932;25.904;2023-03-26T11:41:28;99903.63;;;19.86;36.25
8705;BME280;4389;41.932;25.904;2023-03-26T11:43:59;99909.22;;;19.78;36.56
8705;BME280;4389;41.932;25.904;2023-03-26T11:46:29;99913.94;;;19.63;35.32
8705;BME280;4389;41.932;25.904;2023-03-26T11:48:58;99893.50;;;19.75;36.25
8705;BME280;4389;41.932;25.904;2023-03-26T11:51:29;99889.97;;;19.94;35.77
8705;BME280;4389;41.932;25.904;2023-03-26T11:53:56;99889.72;;;20.09;35.67
8705;BME280;4389;41.932;25.904;2023-03-26T11:56:28;99888.31;;;19.87;34.95
8705;BME280;4389;41.932;25.904;2023-03-26T11:59:00;99877.78;;;19.85;35.00
8705;BME280;4389;41.932;25.904;2023-03-26T12:01:41;99907.72;;;20.08;34.36
8705;BME280;4389;41.932;25.904;2023-03-26T12:04:10;99887.03;;;20.15;35.48
8705;BME280;4389;41.932;25.904;2023-03-26T12:06:49;99876.47;;;20.27;34.58
8705;BME280;4389;41.932;25.904;2023-03-26T12:09:18;99874.84;;;20.06;33.72
8705;BME280;4389;41.932;25.904;2023-03-26T12:11:48;99867.19;;;20.16;34.10
8705;BME280;4389;41.932;25.904;2023-03-26T12:14:20;99858.69;;;20.26;32.99
8705;BME280;4389;41.932;25.904;2023-03-26T12:17:02;99860.03;;;20.48;33.63
8705;BME280;4389;41.932;25.904;2023-03-26T12:19:38;99875.56;;;20.39;33.04
8705;BME280;4389;41.932;25.904;2023-03-26T12:22:10;99866.25;;;20.42;33.15
8705;BME280;4389;41.932;25.904;2023-03-26T12:25:00;99857.84;;;20.32;31.93
8705;BME280;4389;41.932;25.904;2023-03-26T12:27:28;99848.19;;;20.55;32.23
8705;BME280;4389;41.932;25.904;2023-03-26T12:29:58;99833.69;;;20.56;32.05
8705;BME280;4389;41.932;25.904;2023-03-26T12:32:37;99841.34;;;20.59;31.20
8705;BME280;4389;41.932;25.904;2023-03-26T12:35:09;99841.28;;;20.72;32.19
8705;BME280;4389;41.932;25.904;2023-03-26T12:37:43;99836.75;;;21.04;31.18
8705;BME280;4389;41.932;25.904;2023-03-26T12:40:27;99826.13;;;21.33;31.06
8705;BME280;4389;41.932;25.904;2023-03-26T12:42:57;99824.66;;;21.13;31.42
8705;BME280;4389;41.932;25.904;2023-03-26T12:45:28;99822.50;;;20.97;31.05
8705;BME280;4389;41.932;25.904;2023-03-26T12:47:56;99827.53;;;20.87;30.73
8705;BME280;4389;41.932;25.904;2023-03-26T12:50:30;99826.28;;;20.89;30.96
8705;BME280;4389;41.932;25.904;2023-03-26T12:53:06;99816.75;;;20.93;30.44
8705;BME280;4389;41.932;25.904;2023-03-26T12:55:50;99814.28;;;20.85;30.47
8705;BME280;4389;41.932;25.904;2023-03-26T13:01:25;99814.56;;;21.08;32.97
8705;BME280;4389;41.932;25.904;2023-03-26T13:07:02;99814.38;;;21.03;33.04
8705;BME280;4389;41.932;25.904;2023-03-26T13:09:42;99807.34;;;21.02;34.41
8705;BME280;4389;41.932;25.904;2023-03-26T13:12:27;99806.97;;;20.99;35.84
8705;BME280;4389;41.932;25.904;2023-03-26T13:15:08;99800.25;;;21.08;35.17
8705;BME280;4389;41.932;25.904;2023-03-26T13:17:42;99804.66;;;21.02;36.45
8705;BME280;4389;41.932;25.904;2023-03-26T13:20:16;99813.06;;;21.12;36.29
8705;BME280;4389;41.932;25.904;2023-03-26T13:22:50;99806.97;;;21.23;33.80
8705;BME280;4389;41.932;25.904;2023-03-26T13:25:29;99802.47;;;21.17;34.82
8705;BME280;4389;41.932;25.904;2023-03-26T13:28:09;99797.75;;;21.13;33.96
8705;BME280;4389;41.932;25.904;2023-03-26T13:30:44;99801.75;;;21.04;35.18
8705;BME280;4389;41.932;25.904;2023-03-26T13:33:24;99798.72;;;20.94;35.02
8705;BME280;4389;41.932;25.904;2023-03-26T13:35:56;99787.56;;;20.90;33.29
8705;BME280;4389;41.932;25.904;2023-03-26T13:38:31;99786.84;;;20.70;34.12
8705;BME280;4389;41.932;25.904;2023-03-26T13:41:04;99787.41;;;20.85;34.42
8705;BME280;4389;41.932;25.904;2023-03-26T13:43:44;99786.91;;;20.95;32.20
8705;BME280;4389;41.932;25.904;2023-03-26T13:46:25;99791.59;;;21.06;31.68
8705;BME280;4389;41.932;25.904;2023-03-26T13:48:58;99782.41;;;21.13;31.77
8705;BME280;4389;41.932;25.904;2023-03-26T13:51:29;99784.13;;;21.08;30.76
8705;BME280;4389;41.932;25.904;2023-03-26T13:54:02;99789.00;;;21.17;29.55
8705;BME280;4389;41.932;25.904;2023-03-26T13:56:35;99781.31;;;20.96;28.73
8705;BME280;4389;41.932;25.904;2023-03-26T13:59:07;99781.50;;;21.01;28.48
8705;BME280;4389;41.932;25.904;2023-03-26T14:01:43;99774.19;;;21.08;27.96
8705;BME280;4389;41.932;25.904;2023-03-26T14:04:16;99763.44;;;21.08;28.44
8705;BME280;4389;41.932;25.904;2023-03-26T14:06:48;99748.19;;;21.20;29.51
8705;BME280;4389;41.932;25.904;2023-03-26T14:09:25;99769.22;;;21.05;32.44